sensor_id;sensor_type;location;lat;lon;timestamp;P1;durP1;ratioP1;P2;durP2;ratioP2
73382;SDS011;61600;48.126;11.542;2022-07-09T00:00:24;4.78;;;1.60;;
73382;SDS011;61600;48.126;11.542;2022-07-09T00:02:49;6.22;;;1.63;;
73382;SDS011;61600;48.126;11.542;2022-07-09T00:05:14;4.53;;;2.00;;
73382;SDS011;61600;48.126;11.542;2022-07-09T00:07:41;3.08;;;1.65;;
73382;SDS011;61600;48.126;11.542;2022-07-09T00:10:07;4.85;;;1.73;;
73382;SDS011;61600;48.126;11.542;2022-07-09T00:12:33;3.67;;;1.63;;
73382;SDS011;61600;48.126;11.542;2022-07-09T00:14:58;4.50;;;1.77;;
73382;SDS011;61600;48.126;11.542;2022-07-09T00:17:24;3.60;;;1.50;;
73382;SDS011;61600;48.126;11.542;2022-07-09T00:19:51;4.35;;;1.80;;
73382;SDS011;61600;48.126;11.542;2022-07-09T00:22:17;4.50;;;1.90;;
73382;SDS011;61600;48.126;11.542;2022-07-09T00:24:42;2.47;;;1.50;;
73382;SDS011;61600;48.126;11.542;2022-07-09T00:27:08;4.88;;;1.65;;
73382;SDS011;61600;48.126;11.542;2022-07-09T00:29:33;3.53;;;1.83;;
73382;SDS011;61600;48.126;11.542;2022-07-09T00:31:59;4.18;;;1.73;;
73382;SDS011;61600;48.126;11.542;2022-07-09T00:34:24;4.75;;;2.00;;
73382;SDS011;61600;48.126;11.542;2022-07-09T00:36:50;3.13;;;1.50;;
73382;SDS011;61600;48.126;11.542;2022-07-09T00:39:15;3.40;;;1.75;;
73382;SDS011;61600;48.126;11.542;2022-07-09T00:41:40;4.28;;;2.05;;
73382;SDS011;61600;48.126;11.542;2022-07-09T00:44:06;4.75;;;1.65;;
73382;SDS011;61600;48.126;11.542;2022-07-09T00:46:31;3.25;;;1.42;;
73382;SDS011;61600;48.126;11.542;2022-07-09T00:48:57;3.00;;;1.50;;
73382;SDS011;61600;48.126;11.542;2022-07-09T00:51:28;4.93;;;1.80;;
73382;SDS011;61600;48.126;11.542;2022-07-09T00:53:55;3.60;;;1.70;;
73382;SDS011;61600;48.126;11.542;2022-07-09T00:56:21;4.00;;;1.60;;
73382;SDS011;61600;48.126;11.542;2022-07-09T00:58:47;5.15;;;1.63;;
73382;SDS011;61600;48.126;11.542;2022-07-09T01:01:13;4.32;;;1.52;;
73382;SDS011;61600;48.126;11.542;2022-07-09T01:03:39;3.63;;;1.70;;
73382;SDS011;61600;48.126;11.542;2022-07-09T01:06:04;3.38;;;1.90;;
73382;SDS011;61600;48.126;11.542;2022-07-09T01:08:30;4.25;;;1.70;;
73382;SDS011;61600;48.126;11.542;2022-07-09T01:10:55;4.13;;;1.88;;
73382;SDS011;61600;48.126;11.542;2022-07-09T01:13:21;4.05;;;1.83;;
73382;SDS011;61600;48.126;11.542;2022-07-09T01:15:52;2.67;;;1.67;;
73382;SDS011;61600;48.126;11.542;2022-07-09T01:18:17;2.83;;;1.48;;
73382;SDS011;61600;48.126;11.542;2022-07-09T01:20:44;3.80;;;1.73;;
73382;SDS011;61600;48.126;11.542;2022-07-09T01:23:10;4.22;;;1.80;;
73382;SDS011;61600;48.126;11.542;2022-07-09T01:25:36;4.07;;;1.65;;
73382;SDS011;61600;48.126;11.542;2022-07-09T01:28:04;3.83;;;1.60;;
73382;SDS011;61600;48.126;11.542;2022-07-09T01:32:57;4.35;;;1.80;;
73382;SDS011;61600;48.126;11.542;2022-07-09T01:35:22;4.00;;;1.80;;
73382;SDS011;61600;48.126;11.542;2022-07-09T01:37:48;4.43;;;1.90;;
73382;SDS011;61600;48.126;11.542;2022-07-09T01:40:14;3.15;;;1.50;;
73382;SDS011;61600;48.126;11.542;2022-07-09T01:42:39;4.78;;;1.77;;
73382;SDS011;61600;48.126;11.542;2022-07-09T01:45:05;5.85;;;2.03;;
73382;SDS011;61600;48.126;11.542;2022-07-09T01:47:31;3.72;;;1.85;;
73382;SDS011;61600;48.126;11.542;2022-07-09T01:49:57;4.78;;;1.70;;
73382;SDS011;61600;48.126;11.542;2022-07-09T01:52:22;3.40;;;1.80;;
73382;SDS011;61600;48.126;11.542;2022-07-09T01:54:48;5.30;;;1.75;;
73382;SDS011;61600;48.126;11.542;2022-07-09T01:57:13;3.78;;;1.75;;
73382;SDS011;61600;48.126;11.542;2022-07-09T01:59:39;4.55;;;1.80;;
73382;SDS011;61600;48.126;11.542;2022-07-09T02:02:04;3.10;;;1.80;;
73382;SDS011;61600;48.126;11.542;2022-07-09T02:04:30;3.13;;;1.60;;
73382;SDS011;61600;48.126;11.542;2022-07-09T02:06:56;3.53;;;2.00;;
73382;SDS011;61600;48.126;11.542;2022-07-09T02:09:21;5.93;;;2.10;;
73382;SDS011;61600;48.126;11.542;2022-07-09T02:11:47;3.38;;;1.60;;
73382;SDS011;61600;48.126;11.542;2022-07-09T02:14:13;4.45;;;2.10;;
73382;SDS011;61600;48.126;11.542;2022-07-09T02:16:39;4.55;;;2.00;;
73382;SDS011;61600;48.126;11.542;2022-07-09T02:19:05;4.35;;;1.80;;
73382;SDS011;61600;48.126;11.542;2022-07-09T02:21:31;5.35;;;2.03;;
73382;SDS011;61600;48.126;11.542;2022-07-09T02:23:57;3.78;;;2.03;;
73382;SDS011;61600;48.126;11.542;2022-07-09T02:26:26;3.13;;;1.60;;
73382;SDS011;61600;48.126;11.542;2022-07-09T02:28:57;4.38;;;1.80;;
73382;SDS011;61600;48.126;11.542;2022-07-09T02:31:24;4.22;;;1.80;;
73382;SDS011;61600;48.126;11.542;2022-07-09T02:33:50;6.65;;;2.20;;
73382;SDS011;61600;48.126;11.542;2022-07-09T02:36:15;6.88;;;2.00;;
73382;SDS011;61600;48.126;11.542;2022-07-09T02:38:42;5.80;;;1.70;;
73382;SDS011;61600;48.126;11.542;2022-07-09T02:41:08;6.82;;;2.13;;
73382;SDS011;61600;48.126;11.542;2022-07-09T02:43:33;4.72;;;1.73;;
73382;SDS011;61600;48.126;11.542;2022-07-09T02:45:59;3.50;;;1.60;;
73382;SDS011;61600;48.126;11.542;2022-07-09T02:48:24;4.82;;;1.70;;
73382;SDS011;61600;48.126;11.542;2022-07-09T02:50:50;4.60;;;2.00;;
73382;SDS011;61600;48.126;11.542;2022-07-09T02:53:16;3.92;;;1.70;;
73382;SDS011;61600;48.126;11.542;2022-07-09T02:55:47;5.70;;;1.88;;
73382;SDS011;61600;48.126;11.542;2022-07-09T02:58:12;5.50;;;2.00;;
73382;SDS011;61600;48.126;11.542;2022-07-09T03:00:38;3.55;;;1.88;;
73382;SDS011;61600;48.126;11.542;2022-07-09T03:03:08;5.15;;;1.70;;
73382;SDS011;61600;48.126;11.542;2022-07-09T03:05:34;3.67;;;1.65;;
73382;SDS011;61600;48.126;11.542;2022-07-09T03:08:00;5.53;;;1.98;;
73382;SDS011;61600;48.126;11.542;2022-07-09T03:10:26;6.85;;;2.10;;
73382;SDS011;61600;48.126;11.542;2022-07-09T03:12:52;3.28;;;1.77;;
73382;SDS011;61600;48.126;11.542;2022-07-09T03:15:18;2.80;;;1.80;;
73382;SDS011;61600;48.126;11.542;2022-07-09T03:17:44;3.88;;;1.80;;
73382;SDS011;61600;48.126;11.542;2022-07-09T03:20:10;3.47;;;1.70;;
73382;SDS011;61600;48.126;11.542;2022-07-09T03:22:37;5.85;;;1.80;;
73382;SDS011;61600;48.126;11.542;2022-07-09T03:25:03;4.93;;;2.00;;
73382;SDS011;61600;48.126;11.542;2022-07-09T03:27:29;4.15;;;1.95;;
73382;SDS011;61600;48.126;11.542;2022-07-09T03:29:54;5.22;;;2.08;;
73382;SDS011;61600;48.126;11.542;2022-07-09T03:32:20;6.63;;;2.28;;
73382;SDS011;61600;48.126;11.542;2022-07-09T03:34:46;3.40;;;2.00;;
73382;SDS011;61600;48.126;11.542;2022-07-09T03:37:11;9.13;;;2.17;;
73382;SDS011;61600;48.126;11.542;2022-07-09T03:39:36;3.53;;;1.92;;
73382;SDS011;61600;48.126;11.542;2022-07-09T03:42:02;4.25;;;1.80;;
73382;SDS011;61600;48.126;11.542;2022-07-09T03:44:28;5.85;;;1.92;;
73382;SDS011;61600;48.126;11.542;2022-07-09T03:46:53;6.78;;;1.70;;
73382;SDS011;61600;48.126;11.542;2022-07-09T03:49:19;5.47;;;2.20;;
73382;SDS011;61600;48.126;11.542;2022-07-09T03:51:48;6.15;;;1.70;;
73382;SDS011;61600;48.126;11.542;2022-07-09T03:54:13;6.13;;;1.95;;
73382;SDS011;61600;48.126;11.542;2022-07-09T03:56:39;3.13;;;1.90;;
73382;SDS011;61600;48.126;11.542;2022-07-09T03:59:09;3.22;;;1.90;;
73382;SDS011;61600;48.126;11.542;2022-07-09T04:01:35;4.43;;;2.00;;
73382;SDS011;61600;48.126;11.542;2022-07-09T04:04:00;4.68;;;1.83;;
73382;SDS011;61600;48.126;11.542;2022-07-09T04:06:26;5.72;;;2.03;;
73382;SDS011;61600;48.126;11.542;2022-07-09T04:08:52;5.35;;;2.10;;
73382;SDS011;61600;48.126;11.542;2022-07-09T04:11:17;2.47;;;1.52;;
73382;SDS011;61600;48.126;11.542;2022-07-09T04:13:51;4.82;;;2.13;;
73382;SDS011;61600;48.126;11.542;2022-07-09T04:16:16;4.28;;;2.00;;
73382;SDS011;61600;48.126;11.542;2022-07-09T04:18:42;5.20;;;2.20;;
73382;SDS011;61600;48.126;11.542;2022-07-09T04:21:09;5.90;;;2.20;;
73382;SDS011;61600;48.126;11.542;2022-07-09T04:23:35;3.45;;;1.90;;
73382;SDS011;61600;48.126;11.542;2022-07-09T04:26:01;3.83;;;2.20;;
73382;SDS011;61600;48.126;11.542;2022-07-09T04:28:27;3.67;;;1.75;;
73382;SDS011;61600;48.126;11.542;2022-07-09T04:30:53;4.57;;;2.00;;
73382;SDS011;61600;48.126;11.542;2022-07-09T04:33:18;5.07;;;1.95;;
73382;SDS011;61600;48.126;11.542;2022-07-09T04:35:44;3.15;;;2.00;;
73382;SDS011;61600;48.126;11.542;2022-07-09T04:38:11;5.35;;;2.10;;
73382;SDS011;61600;48.126;11.542;2022-07-09T04:40:38;4.20;;;2.10;;
73382;SDS011;61600;48.126;11.542;2022-07-09T04:43:04;6.95;;;2.10;;
73382;SDS011;61600;48.126;11.542;2022-07-09T04:45:31;3.42;;;1.90;;
73382;SDS011;61600;48.126;11.542;2022-07-09T04:47:58;4.45;;;2.00;;
73382;SDS011;61600;48.126;11.542;2022-07-09T04:52:50;3.78;;;2.15;;
73382;SDS011;61600;48.126;11.542;2022-07-09T04:55:16;4.20;;;2.17;;
73382;SDS011;61600;48.126;11.542;2022-07-09T04:57:42;3.75;;;2.35;;
73382;SDS011;61600;48.126;11.542;2022-07-09T05:00:08;4.07;;;1.83;;
73382;SDS011;61600;48.126;11.542;2022-07-09T05:02:34;3.25;;;2.15;;
73382;SDS011;61600;48.126;11.542;2022-07-09T05:05:00;4.28;;;2.05;;
73382;SDS011;61600;48.126;11.542;2022-07-09T05:07:26;3.92;;;2.10;;
73382;SDS011;61600;48.126;11.542;2022-07-09T05:09:51;4.80;;;2.33;;
73382;SDS011;61600;48.126;11.542;2022-07-09T05:12:17;3.63;;;2.13;;
73382;SDS011;61600;48.126;11.542;2022-07-09T05:14:42;4.10;;;1.92;;
73382;SDS011;61600;48.126;11.542;2022-07-09T05:17:08;3.17;;;2.20;;
73382;SDS011;61600;48.126;11.542;2022-07-09T05:19:33;6.25;;;2.45;;
73382;SDS011;61600;48.126;11.542;2022-07-09T05:21:58;6.10;;;2.40;;
73382;SDS011;61600;48.126;11.542;2022-07-09T05:24:24;4.85;;;1.90;;
73382;SDS011;61600;48.126;11.542;2022-07-09T05:26:50;6.57;;;2.30;;
73382;SDS011;61600;48.126;11.542;2022-07-09T05:29:15;3.15;;;2.08;;
73382;SDS011;61600;48.126;11.542;2022-07-09T05:31:41;3.70;;;1.95;;
73382;SDS011;61600;48.126;11.542;2022-07-09T05:34:07;7.63;;;2.45;;
73382;SDS011;61600;48.126;11.542;2022-07-09T05:36:33;3.45;;;1.90;;
73382;SDS011;61600;48.126;11.542;2022-07-09T05:38:59;3.97;;;1.92;;
73382;SDS011;61600;48.126;11.542;2022-07-09T05:41:26;7.80;;;2.70;;
73382;SDS011;61600;48.126;11.542;2022-07-09T05:43:52;3.42;;;2.15;;
73382;SDS011;61600;48.126;11.542;2022-07-09T05:46:18;3.15;;;1.90;;
73382;SDS011;61600;48.126;11.542;2022-07-09T05:48:44;7.40;;;2.40;;
73382;SDS011;61600;48.126;11.542;2022-07-09T05:51:10;3.50;;;1.98;;
73382;SDS011;61600;48.126;11.542;2022-07-09T05:53:35;3.42;;;2.05;;
73382;SDS011;61600;48.126;11.542;2022-07-09T05:56:01;5.28;;;2.10;;
73382;SDS011;61600;48.126;11.542;2022-07-09T05:58:26;2.83;;;1.90;;
73382;SDS011;61600;48.126;11.542;2022-07-09T06:00:52;3.20;;;1.95;;
73382;SDS011;61600;48.126;11.542;2022-07-09T06:03:17;4.85;;;2.00;;
73382;SDS011;61600;48.126;11.542;2022-07-09T06:05:43;3.25;;;1.50;;
73382;SDS011;61600;48.126;11.542;2022-07-09T06:08:08;4.30;;;1.80;;
73382;SDS011;61600;48.126;11.542;2022-07-09T06:10:34;6.82;;;3.45;;
73382;SDS011;61600;48.126;11.542;2022-07-09T06:13:00;7.57;;;2.03;;
73382;SDS011;61600;48.126;11.542;2022-07-09T06:15:25;2.33;;;1.80;;
73382;SDS011;61600;48.126;11.542;2022-07-09T06:17:51;6.50;;;2.10;;
73382;SDS011;61600;48.126;11.542;2022-07-09T06:20:16;5.38;;;2.03;;
73382;SDS011;61600;48.126;11.542;2022-07-09T06:22:42;4.50;;;1.90;;
73382;SDS011;61600;48.126;11.542;2022-07-09T06:25:08;3.30;;;1.88;;
73382;SDS011;61600;48.126;11.542;2022-07-09T06:30:04;2.80;;;1.67;;
73382;SDS011;61600;48.126;11.542;2022-07-09T06:32:30;3.50;;;1.67;;
73382;SDS011;61600;48.126;11.542;2022-07-09T06:34:55;6.78;;;1.95;;
73382;SDS011;61600;48.126;11.542;2022-07-09T06:37:21;5.30;;;1.77;;
73382;SDS011;61600;48.126;11.542;2022-07-09T06:39:46;5.35;;;1.98;;
73382;SDS011;61600;48.126;11.542;2022-07-09T06:42:16;5.40;;;1.77;;
73382;SDS011;61600;48.126;11.542;2022-07-09T06:44:43;2.80;;;1.70;;
73382;SDS011;61600;48.126;11.542;2022-07-09T06:47:09;6.00;;;1.90;;
73382;SDS011;61600;48.126;11.542;2022-07-09T06:49:35;2.78;;;1.65;;
73382;SDS011;61600;48.126;11.542;2022-07-09T06:52:01;2.95;;;1.70;;
73382;SDS011;61600;48.126;11.542;2022-07-09T06:54:27;8.88;;;2.97;;
73382;SDS011;61600;48.126;11.542;2022-07-09T06:56:53;6.32;;;1.60;;
73382;SDS011;61600;48.126;11.542;2022-07-09T06:59:18;2.97;;;1.55;;
73382;SDS011;61600;48.126;11.542;2022-07-09T07:01:44;4.43;;;1.88;;
73382;SDS011;61600;48.126;11.542;2022-07-09T07:04:10;3.58;;;1.42;;
73382;SDS011;61600;48.126;11.542;2022-07-09T07:06:38;4.10;;;2.00;;
73382;SDS011;61600;48.126;11.542;2022-07-09T07:09:04;3.30;;;1.90;;
73382;SDS011;61600;48.126;11.542;2022-07-09T07:11:29;4.07;;;2.05;;
73382;SDS011;61600;48.126;11.542;2022-07-09T07:13:55;4.57;;;1.85;;
73382;SDS011;61600;48.126;11.542;2022-07-09T07:16:20;3.28;;;1.60;;
73382;SDS011;61600;48.126;11.542;2022-07-09T07:18:46;2.97;;;1.70;;
73382;SDS011;61600;48.126;11.542;2022-07-09T07:21:11;4.22;;;1.88;;
73382;SDS011;61600;48.126;11.542;2022-07-09T07:23:37;5.07;;;1.80;;
73382;SDS011;61600;48.126;11.542;2022-07-09T07:26:02;4.35;;;1.75;;
73382;SDS011;61600;48.126;11.542;2022-07-09T07:28:28;5.55;;;1.77;;
73382;SDS011;61600;48.126;11.542;2022-07-09T07:30:54;3.25;;;1.60;;
73382;SDS011;61600;48.126;11.542;2022-07-09T07:33:20;3.08;;;1.90;;
73382;SDS011;61600;48.126;11.542;2022-07-09T07:35:45;5.70;;;1.52;;
73382;SDS011;61600;48.126;11.542;2022-07-09T07:38:12;4.00;;;1.67;;
73382;SDS011;61600;48.126;11.542;2022-07-09T07:40:39;4.72;;;1.60;;
73382;SDS011;61600;48.126;11.542;2022-07-09T07:43:09;2.92;;;1.40;;
73382;SDS011;61600;48.126;11.542;2022-07-09T07:45:36;4.78;;;1.42;;
73382;SDS011;61600;48.126;11.542;2022-07-09T07:48:01;5.35;;;1.67;;
73382;SDS011;61600;48.126;11.542;2022-07-09T07:50:27;12.35;;;2.50;;
73382;SDS011;61600;48.126;11.542;2022-07-09T07:52:52;7.75;;;1.90;;
73382;SDS011;61600;48.126;11.542;2022-07-09T07:55:18;5.25;;;1.52;;
73382;SDS011;61600;48.126;11.542;2022-07-09T07:57:43;6.97;;;1.80;;
73382;SDS011;61600;48.126;11.542;2022-07-09T08:00:09;3.63;;;1.80;;
73382;SDS011;61600;48.126;11.542;2022-07-09T08:02:35;7.57;;;1.77;;
73382;SDS011;61600;48.126;11.542;2022-07-09T08:05:00;6.40;;;2.28;;
73382;SDS011;61600;48.126;11.542;2022-07-09T08:07:26;3.70;;;1.77;;
73382;SDS011;61600;48.126;11.542;2022-07-09T08:09:52;3.92;;;1.50;;
73382;SDS011;61600;48.126;11.542;2022-07-09T08:12:18;5.07;;;1.55;;
73382;SDS011;61600;48.126;11.542;2022-07-09T08:14:43;8.20;;;2.17;;
73382;SDS011;61600;48.126;11.542;2022-07-09T08:17:09;4.63;;;1.60;;
73382;SDS011;61600;48.126;11.542;2022-07-09T08:19:35;5.18;;;1.67;;
73382;SDS011;61600;48.126;11.542;2022-07-09T08:22:01;3.08;;;1.27;;
73382;SDS011;61600;48.126;11.542;2022-07-09T08:24:26;2.72;;;1.27;;
73382;SDS011;61600;48.126;11.542;2022-07-09T08:26:52;5.32;;;1.40;;
73382;SDS011;61600;48.126;11.542;2022-07-09T08:29:18;3.97;;;1.58;;
73382;SDS011;61600;48.126;11.542;2022-07-09T08:31:44;3.00;;;1.40;;
73382;SDS011;61600;48.126;11.542;2022-07-09T08:34:09;3.97;;;1.40;;
73382;SDS011;61600;48.126;11.542;2022-07-09T08:36:35;3.85;;;1.55;;
73382;SDS011;61600;48.126;11.542;2022-07-09T08:39:00;4.85;;;1.20;;
73382;SDS011;61600;48.126;11.542;2022-07-09T08:41:26;3.47;;;1.23;;
73382;SDS011;61600;48.126;11.542;2022-07-09T08:43:51;2.35;;;1.25;;
73382;SDS011;61600;48.126;11.542;2022-07-09T08:46:17;4.15;;;1.50;;
73382;SDS011;61600;48.126;11.542;2022-07-09T08:48:43;4.97;;;1.98;;
73382;SDS011;61600;48.126;11.542;2022-07-09T08:51:10;2.80;;;1.60;;
73382;SDS011;61600;48.126;11.542;2022-07-09T08:53:42;1.80;;;1.10;;
73382;SDS011;61600;48.126;11.542;2022-07-09T08:56:10;3.50;;;1.55;;
73382;SDS011;61600;48.126;11.542;2022-07-09T08:58:39;5.55;;;1.38;;
73382;SDS011;61600;48.126;11.542;2022-07-09T09:01:05;3.28;;;1.50;;
73382;SDS011;61600;48.126;11.542;2022-07-09T09:03:31;5.10;;;1.55;;
73382;SDS011;61600;48.126;11.542;2022-07-09T09:06:01;2.70;;;1.30;;
73382;SDS011;61600;48.126;11.542;2022-07-09T09:08:34;3.10;;;1.05;;
73382;SDS011;61600;48.126;11.542;2022-07-09T09:11:01;2.53;;;1.17;;
73382;SDS011;61600;48.126;11.542;2022-07-09T09:13:28;3.42;;;1.40;;
73382;SDS011;61600;48.126;11.542;2022-07-09T09:16:03;4.07;;;1.50;;
73382;SDS011;61600;48.126;11.542;2022-07-09T09:18:39;3.40;;;1.40;;
73382;SDS011;61600;48.126;11.542;2022-07-09T09:21:06;3.22;;;1.20;;
73382;SDS011;61600;48.126;11.542;2022-07-09T09:23:39;4.65;;;1.60;;
73382;SDS011;61600;48.126;11.542;2022-07-09T09:31:21;3.85;;;1.42;;
73382;SDS011;61600;48.126;11.542;2022-07-09T09:33:46;3.72;;;1.50;;
73382;SDS011;61600;48.126;11.542;2022-07-09T09:36:25;5.35;;;1.30;;
73382;SDS011;61600;48.126;11.542;2022-07-09T09:38:52;3.80;;;1.60;;
73382;SDS011;61600;48.126;11.542;2022-07-09T09:41:21;4.25;;;1.23;;
73382;SDS011;61600;48.126;11.542;2022-07-09T09:43:47;2.88;;;1.30;;
73382;SDS011;61600;48.126;11.542;2022-07-09T09:46:14;3.55;;;1.30;;
73382;SDS011;61600;48.126;11.542;2022-07-09T09:48:40;2.88;;;1.40;;
73382;SDS011;61600;48.126;11.542;2022-07-09T09:51:08;2.97;;;1.35;;
73382;SDS011;61600;48.126;11.542;2022-07-09T09:53:35;3.78;;;1.45;;
73382;SDS011;61600;48.126;11.542;2022-07-09T09:56:07;2.33;;;1.02;;
73382;SDS011;61600;48.126;11.542;2022-07-09T09:58:34;2.72;;;1.60;;
73382;SDS011;61600;48.126;11.542;2022-07-09T10:01:10;4.32;;;1.65;;
73382;SDS011;61600;48.126;11.542;2022-07-09T10:03:48;4.43;;;1.60;;
73382;SDS011;61600;48.126;11.542;2022-07-09T10:06:17;2.63;;;1.15;;
73382;SDS011;61600;48.126;11.542;2022-07-09T10:08:44;2.70;;;1.30;;
73382;SDS011;61600;48.126;11.542;2022-07-09T10:11:10;2.05;;;1.20;;
73382;SDS011;61600;48.126;11.542;2022-07-09T10:16:16;3.88;;;1.30;;
73382;SDS011;61600;48.126;11.542;2022-07-09T10:18:52;4.90;;;1.40;;
73382;SDS011;61600;48.126;11.542;2022-07-09T10:21:18;3.42;;;1.30;;
73382;SDS011;61600;48.126;11.542;2022-07-09T10:23:55;3.65;;;1.17;;
73382;SDS011;61600;48.126;11.542;2022-07-09T10:26:20;3.55;;;1.40;;
73382;SDS011;61600;48.126;11.542;2022-07-09T10:28:45;3.83;;;1.35;;
73382;SDS011;61600;48.126;11.542;2022-07-09T10:31:11;4.60;;;1.30;;
73382;SDS011;61600;48.126;11.542;2022-07-09T10:33:48;3.08;;;1.38;;
73382;SDS011;61600;48.126;11.542;2022-07-09T10:36:29;4.65;;;1.30;;
73382;SDS011;61600;48.126;11.542;2022-07-09T10:38:54;2.47;;;1.10;;
73382;SDS011;61600;48.126;11.542;2022-07-09T10:43:51;4.43;;;1.25;;
73382;SDS011;61600;48.126;11.542;2022-07-09T10:46:17;5.43;;;1.70;;
73382;SDS011;61600;48.126;11.542;2022-07-09T10:48:46;2.97;;;1.40;;
73382;SDS011;61600;48.126;11.542;2022-07-09T10:51:22;3.13;;;1.23;;
73382;SDS011;61600;48.126;11.542;2022-07-09T10:53:48;3.97;;;1.30;;
73382;SDS011;61600;48.126;11.542;2022-07-09T10:58:47;3.20;;;1.20;;
73382;SDS011;61600;48.126;11.542;2022-07-09T11:01:18;4.47;;;1.25;;
73382;SDS011;61600;48.126;11.542;2022-07-09T11:03:46;2.30;;;0.82;;
73382;SDS011;61600;48.126;11.542;2022-07-09T11:06:14;3.05;;;1.30;;
73382;SDS011;61600;48.126;11.542;2022-07-09T11:08:39;3.35;;;1.00;;
73382;SDS011;61600;48.126;11.542;2022-07-09T11:11:05;5.15;;;1.67;;
73382;SDS011;61600;48.126;11.542;2022-07-09T11:13:31;1.73;;;0.90;;
73382;SDS011;61600;48.126;11.542;2022-07-09T11:16:00;3.90;;;1.25;;
73382;SDS011;61600;48.126;11.542;2022-07-09T11:18:27;3.63;;;0.93;;
73382;SDS011;61600;48.126;11.542;2022-07-09T11:20:53;3.88;;;1.75;;
73382;SDS011;61600;48.126;11.542;2022-07-09T11:23:19;2.70;;;1.27;;
73382;SDS011;61600;48.126;11.542;2022-07-09T11:25:45;3.15;;;1.15;;
73382;SDS011;61600;48.126;11.542;2022-07-09T11:28:18;3.72;;;1.15;;
73382;SDS011;61600;48.126;11.542;2022-07-09T11:31:01;5.20;;;0.90;;
73382;SDS011;61600;48.126;11.542;2022-07-09T11:33:29;2.35;;;1.00;;
73382;SDS011;61600;48.126;11.542;2022-07-09T11:36:15;3.00;;;0.85;;
73382;SDS011;61600;48.126;11.542;2022-07-09T11:41:14;3.70;;;2.00;;
73382;SDS011;61600;48.126;11.542;2022-07-09T11:43:45;4.05;;;1.08;;
73382;SDS011;61600;48.126;11.542;2022-07-09T11:46:20;5.57;;;1.40;;
73382;SDS011;61600;48.126;11.542;2022-07-09T11:48:52;4.07;;;1.25;;
73382;SDS011;61600;48.126;11.542;2022-07-09T11:51:53;2.78;;;1.10;;
73382;SDS011;61600;48.126;11.542;2022-07-09T11:54:11;2.92;;;1.33;;
73382;SDS011;61600;48.126;11.542;2022-07-09T11:56:43;1.55;;;1.00;;
73382;SDS011;61600;48.126;11.542;2022-07-09T11:59:10;4.45;;;1.33;;
73382;SDS011;61600;48.126;11.542;2022-07-09T12:01:37;2.90;;;1.08;;
73382;SDS011;61600;48.126;11.542;2022-07-09T12:04:04;4.03;;;1.08;;
73382;SDS011;61600;48.126;11.542;2022-07-09T12:06:29;2.08;;;1.27;;
73382;SDS011;61600;48.126;11.542;2022-07-09T12:08:59;5.57;;;1.15;;
73382;SDS011;61600;48.126;11.542;2022-07-09T12:11:26;3.15;;;1.00;;
73382;SDS011;61600;48.126;11.542;2022-07-09T12:13:59;1.42;;;0.90;;
73382;SDS011;61600;48.126;11.542;2022-07-09T12:16:25;2.28;;;1.27;;
73382;SDS011;61600;48.126;11.542;2022-07-09T12:18:50;3.05;;;1.00;;
73382;SDS011;61600;48.126;11.542;2022-07-09T12:21:16;1.98;;;1.20;;
73382;SDS011;61600;48.126;11.542;2022-07-09T12:23:42;4.82;;;1.10;;
73382;SDS011;61600;48.126;11.542;2022-07-09T12:26:08;1.88;;;1.00;;
73382;SDS011;61600;48.126;11.542;2022-07-09T12:28:33;4.82;;;1.40;;
73382;SDS011;61600;48.126;11.542;2022-07-09T12:30:59;2.38;;;0.93;;
73382;SDS011;61600;48.126;11.542;2022-07-09T12:33:24;1.92;;;1.00;;
73382;SDS011;61600;48.126;11.542;2022-07-09T12:35:58;4.03;;;1.40;;
73382;SDS011;61600;48.126;11.542;2022-07-09T12:38:24;2.83;;;0.90;;
73382;SDS011;61600;48.126;11.542;2022-07-09T12:40:50;4.45;;;1.33;;
73382;SDS011;61600;48.126;11.542;2022-07-09T12:43:15;2.92;;;1.02;;
73382;SDS011;61600;48.126;11.542;2022-07-09T12:45:43;2.33;;;0.90;;
73382;SDS011;61600;48.126;11.542;2022-07-09T12:48:09;2.13;;;0.93;;
73382;SDS011;61600;48.126;11.542;2022-07-09T12:50:34;2.03;;;0.90;;
73382;SDS011;61600;48.126;11.542;2022-07-09T12:53:00;1.70;;;0.80;;
73382;SDS011;61600;48.126;11.542;2022-07-09T12:55:28;1.85;;;1.05;;
73382;SDS011;61600;48.126;11.542;2022-07-09T12:58:18;1.58;;;0.90;;
73382;SDS011;61600;48.126;11.542;2022-07-09T13:00:44;4.10;;;1.10;;
73382;SDS011;61600;48.126;11.542;2022-07-09T13:03:10;3.90;;;0.93;;
73382;SDS011;61600;48.126;11.542;2022-07-09T13:05:36;2.10;;;0.77;;
73382;SDS011;61600;48.126;11.542;2022-07-09T13:08:05;2.22;;;1.00;;
73382;SDS011;61600;48.126;11.542;2022-07-09T13:10:30;2.42;;;0.90;;
73382;SDS011;61600;48.126;11.542;2022-07-09T13:12:58;2.33;;;1.13;;
73382;SDS011;61600;48.126;11.542;2022-07-09T13:15:36;2.40;;;1.10;;
73382;SDS011;61600;48.126;11.542;2022-07-09T13:18:04;2.20;;;0.88;;
73382;SDS011;61600;48.126;11.542;2022-07-09T13:20:30;1.77;;;0.93;;
73382;SDS011;61600;48.126;11.542;2022-07-09T13:22:55;2.47;;;1.00;;
73382;SDS011;61600;48.126;11.542;2022-07-09T13:25:21;2.10;;;0.90;;
73382;SDS011;61600;48.126;11.542;2022-07-09T13:27:49;3.15;;;0.80;;
73382;SDS011;61600;48.126;11.542;2022-07-09T13:30:15;3.28;;;1.25;;
73382;SDS011;61600;48.126;11.542;2022-07-09T13:32:55;3.72;;;1.13;;
73382;SDS011;61600;48.126;11.542;2022-07-09T13:35:25;1.00;;;0.80;;
73382;SDS011;61600;48.126;11.542;2022-07-09T13:37:50;3.33;;;1.00;;
73382;SDS011;61600;48.126;11.542;2022-07-09T13:40:19;1.98;;;0.90;;
73382;SDS011;61600;48.126;11.542;2022-07-09T13:42:44;1.65;;;0.85;;
73382;SDS011;61600;48.126;11.542;2022-07-09T13:45:10;4.05;;;1.20;;
73382;SDS011;61600;48.126;11.542;2022-07-09T13:47:36;3.58;;;1.10;;
73382;SDS011;61600;48.126;11.542;2022-07-09T13:50:01;1.38;;;0.80;;
73382;SDS011;61600;48.126;11.542;2022-07-09T13:52:27;2.25;;;1.40;;
73382;SDS011;61600;48.126;11.542;2022-07-09T13:54:52;1.63;;;0.90;;
73382;SDS011;61600;48.126;11.542;2022-07-09T13:57:27;4.63;;;0.98;;
73382;SDS011;61600;48.126;11.542;2022-07-09T13:59:59;2.22;;;1.00;;
73382;SDS011;61600;48.126;11.542;2022-07-09T14:02:34;1.55;;;0.80;;
73382;SDS011;61600;48.126;11.542;2022-07-09T14:05:00;1.98;;;1.05;;
73382;SDS011;61600;48.126;11.542;2022-07-09T14:07:31;2.15;;;0.90;;
73382;SDS011;61600;48.126;11.542;2022-07-09T14:10:00;2.88;;;1.10;;
73382;SDS011;61600;48.126;11.542;2022-07-09T14:12:26;1.67;;;0.90;;
73382;SDS011;61600;48.126;11.542;2022-07-09T14:17:17;5.03;;;2.17;;
73382;SDS011;61600;48.126;11.542;2022-07-09T14:19:43;1.63;;;0.90;;
73382;SDS011;61600;48.126;11.542;2022-07-09T14:24:37;1.93;;;1.03;;
73382;SDS011;61600;48.126;11.542;2022-07-09T14:27:03;2.03;;;1.10;;
73382;SDS011;61600;48.126;11.542;2022-07-09T14:29:29;3.00;;;1.02;;
73382;SDS011;61600;48.126;11.542;2022-07-09T14:34:20;3.03;;;1.00;;
73382;SDS011;61600;48.126;11.542;2022-07-09T14:39:18;3.20;;;0.88;;
73382;SDS011;61600;48.126;11.542;2022-07-09T14:41:45;2.83;;;1.08;;
73382;SDS011;61600;48.126;11.542;2022-07-09T14:44:14;2.88;;;0.85;;
73382;SDS011;61600;48.126;11.542;2022-07-09T14:46:40;1.98;;;0.90;;
73382;SDS011;61600;48.126;11.542;2022-07-09T14:49:15;1.98;;;1.05;;
73382;SDS011;61600;48.126;11.542;2022-07-09T14:51:41;2.22;;;0.90;;
73382;SDS011;61600;48.126;11.542;2022-07-09T14:54:07;2.95;;;0.90;;
73382;SDS011;61600;48.126;11.542;2022-07-09T14:56:32;2.00;;;0.90;;
73382;SDS011;61600;48.126;11.542;2022-07-09T14:58:58;1.73;;;1.00;;
73382;SDS011;61600;48.126;11.542;2022-07-09T15:01:24;4.00;;;1.20;;
73382;SDS011;61600;48.126;11.542;2022-07-09T15:03:50;2.83;;;0.90;;